Hundvaag 1 weather for Dec 1999
Month no. 150
Obs.
Da.
Temp. Dew Point Precip. Wind
Speed
Wind gusts Cloud cover Press. Humidity Wind dir. Sunny OPT
01.12.1999 4,0   24,0     0          
02.12.1999 3,8   3,0     10          
03.12.1999 0,7   9,0     0          
04.12.1999 2,1   10,0     1       1  
05.12.1999 -1,7   1,0     7       1  
06.12.1999 5,9   14,0     0          
07.12.1999 6,9   22,0     1          
08.12.1999 5,4   17,0     0          
09.12.1999 5,4   16,0     0          
10.12.1999 5,0   21,0     0          
11.12.1999 -0,8   0,0     10       1  
12.12.1999 1,8   0,0     0          
13.12.1999 -0,8   0,0     8       1  
14.12.1999 -2,6   0,0     10       1  
15.12.1999 -3,2   0,0     10       1  
16.12.1999 -0,7   0,0     0          
17.12.1999 5,5   24,0     0          
18.12.1999 -0,8   10,0     1       1  
19.12.1999 1,6   4,0     2          
20.12.1999 2,1   2,0     10       1  
21.12.1999 -1,9   0,0     10          
22.12.1999 4,6   2,0     0          
23.12.1999 7,0   10,0     0          
24.12.1999 6,1   19,0     0          
25.12.1999 8,0   15,0     0          
26.12.1999 3,1   15,0     5          
27.12.1999 3,1   2,0     0       1  
28.12.1999 2,5   2,0     0          
29.12.1999 2,2   0,0     0       1  
30.12.1999 2,7   0,0     4          
31.12.1999 6,3   1,0     0          
Avrg/Sum 2,7   243,0     2,9       10